createdAt,value
2018-07-02T00:00:36.708Z,1.60
2018-07-02T00:03:04.637Z,1.33
2018-07-02T00:05:43.729Z,1.30
2018-07-02T00:08:11.605Z,1.10
2018-07-02T00:10:39.437Z,1.30
2018-07-02T00:13:07.209Z,1.33
2018-07-02T00:15:34.956Z,0.90
2018-07-02T00:18:03.326Z,1.20
2018-07-02T00:20:31.055Z,1.20
2018-07-02T00:22:58.778Z,1.27
2018-07-02T00:25:26.490Z,1.47
2018-07-02T00:27:54.324Z,0.93
2018-07-02T00:30:22.050Z,1.07
2018-07-02T00:32:49.861Z,1.10
2018-07-02T00:35:17.619Z,1.50
2018-07-02T00:37:45.382Z,1.23
2018-07-02T00:40:13.150Z,1.30
2018-07-02T00:42:41.095Z,1.30
2018-07-02T00:45:08.921Z,1.20
2018-07-02T00:47:36.699Z,1.50
2018-07-02T00:50:04.747Z,1.50
2018-07-02T00:52:32.438Z,1.13
2018-07-02T00:55:00.414Z,1.40
2018-07-02T00:57:28.240Z,1.43
2018-07-02T01:00:06.179Z,1.10
2018-07-02T01:02:33.963Z,1.37
2018-07-02T01:05:01.798Z,1.40
2018-07-02T01:07:29.525Z,1.10
2018-07-02T01:09:57.286Z,1.60
2018-07-02T01:12:25.024Z,1.20
2018-07-02T01:14:52.991Z,1.10
2018-07-02T01:17:20.758Z,1.30
2018-07-02T01:19:48.559Z,0.80
2018-07-02T01:22:16.278Z,1.47
2018-07-02T01:24:44.109Z,1.50
2018-07-02T01:27:11.825Z,0.93
2018-07-02T01:29:39.634Z,1.40
2018-07-02T01:32:07.354Z,1.10
2018-07-02T01:34:35.098Z,1.63
2018-07-02T01:37:02.937Z,1.27
2018-07-02T01:39:30.706Z,1.40
2018-07-02T01:41:58.757Z,1.40
2018-07-02T01:44:26.509Z,1.20
2018-07-02T01:46:54.294Z,1.20
2018-07-02T01:49:22.066Z,1.80
2018-07-02T01:51:49.823Z,1.40
2018-07-02T01:54:17.388Z,1.00
2018-07-02T01:56:45.205Z,1.90
2018-07-02T01:59:12.910Z,1.43
2018-07-02T02:01:40.725Z,1.57
2018-07-02T02:04:08.497Z,1.30
2018-07-02T02:06:36.327Z,1.17
2018-07-02T02:09:06.738Z,1.70
2018-07-02T02:11:34.615Z,1.40
2018-07-02T02:14:03.878Z,1.37
2018-07-02T02:16:31.585Z,1.00
2018-07-02T02:18:59.386Z,1.10
2018-07-02T02:21:27.186Z,1.13
2018-07-02T02:23:54.980Z,1.63
2018-07-02T02:26:22.725Z,1.73
2018-07-02T02:28:50.615Z,1.10
2018-07-02T02:31:18.369Z,1.40
2018-07-02T02:33:46.112Z,1.40
2018-07-02T02:36:13.917Z,1.70
2018-07-02T02:38:41.891Z,1.13
2018-07-02T02:41:09.618Z,1.77
2018-07-02T02:43:37.450Z,1.43
2018-07-02T02:46:05.800Z,1.80
2018-07-02T02:48:33.572Z,1.40
2018-07-02T02:51:01.344Z,1.43
2018-07-02T02:53:29.047Z,1.60
2018-07-02T02:55:56.834Z,1.73
2018-07-02T02:58:24.593Z,1.20
2018-07-02T03:00:52.445Z,1.30
2018-07-02T03:03:20.334Z,1.60
2018-07-02T03:05:48.098Z,1.43
2018-07-02T03:08:15.885Z,1.27
2018-07-02T03:10:43.686Z,1.20
2018-07-02T03:13:11.664Z,1.50
2018-07-02T03:15:39.487Z,1.30
2018-07-02T03:18:07.245Z,1.50
2018-07-02T03:20:34.989Z,1.77
2018-07-02T03:23:03.269Z,1.03
2018-07-02T03:25:30.986Z,1.10
2018-07-02T03:27:58.854Z,1.27
2018-07-02T03:30:26.622Z,1.30
2018-07-02T03:32:54.599Z,1.27
2018-07-02T03:35:22.197Z,0.80
2018-07-02T03:37:49.979Z,1.40
2018-07-02T03:40:17.734Z,1.20
2018-07-02T03:42:45.479Z,1.30
2018-07-02T03:45:13.187Z,1.40
2018-07-02T03:47:40.922Z,1.30
2018-07-02T03:50:08.724Z,1.50
2018-07-02T03:52:36.461Z,0.90
2018-07-02T03:55:04.322Z,1.30
2018-07-02T03:57:32.025Z,1.50
2018-07-02T03:59:59.732Z,1.20
2018-07-02T04:02:27.518Z,0.90
2018-07-02T04:04:55.255Z,1.10
2018-07-02T04:07:22.982Z,1.40
2018-07-02T04:09:50.811Z,0.83
2018-07-02T04:12:18.559Z,1.30
2018-07-02T04:14:46.326Z,0.90
2018-07-02T04:17:14.037Z,1.00
2018-07-02T04:19:41.890Z,1.23
2018-07-02T04:22:09.618Z,1.50
2018-07-02T04:24:37.328Z,1.30
2018-07-02T04:27:05.194Z,1.10
2018-07-02T04:29:32.921Z,1.10
2018-07-02T04:32:00.617Z,1.00
2018-07-02T04:34:28.422Z,1.00
2018-07-02T04:36:56.149Z,1.30
2018-07-02T04:39:23.970Z,1.10
2018-07-02T04:41:51.695Z,1.20
2018-07-02T04:44:19.430Z,1.40
2018-07-02T04:46:47.163Z,0.90
2018-07-02T04:49:14.929Z,1.57
2018-07-02T04:51:42.697Z,1.33
2018-07-02T04:54:10.425Z,1.40
2018-07-02T04:56:38.129Z,1.37
2018-07-02T04:59:06.039Z,1.00
2018-07-02T05:01:33.766Z,0.70
2018-07-02T05:04:01.486Z,1.20
2018-07-02T05:06:29.189Z,1.10
2018-07-02T05:08:56.924Z,1.07
2018-07-02T05:11:24.656Z,1.00
2018-07-02T05:13:52.338Z,1.17
2018-07-02T05:16:20.164Z,1.40
2018-07-02T05:18:49.805Z,1.40
2018-07-02T05:21:17.676Z,1.40
2018-07-02T05:23:45.453Z,1.00
2018-07-02T05:26:13.325Z,1.00
2018-07-02T05:28:41.030Z,1.00
2018-07-02T05:31:08.757Z,1.30
2018-07-02T05:33:36.633Z,1.27
2018-07-02T05:36:04.878Z,1.77
2018-07-02T05:38:32.573Z,1.00
2018-07-02T05:41:00.308Z,1.37
2018-07-02T05:43:28.046Z,1.10
2018-07-02T05:45:55.761Z,1.17
2018-07-02T05:48:23.582Z,1.20
2018-07-02T05:50:52.950Z,1.03
2018-07-02T05:53:20.633Z,1.17
2018-07-02T05:55:48.205Z,0.93
2018-07-02T05:58:15.941Z,1.60
2018-07-02T06:00:46.613Z,1.23
2018-07-02T06:03:14.305Z,1.47
2018-07-02T06:05:42.040Z,1.33
2018-07-02T06:08:09.894Z,1.20
2018-07-02T06:10:37.590Z,1.20
2018-07-02T06:13:05.384Z,1.20
2018-07-02T06:15:33.227Z,1.63
2018-07-02T06:18:00.983Z,1.70
2018-07-02T06:20:28.694Z,1.60
2018-07-02T06:22:56.398Z,1.47
2018-07-02T06:25:24.142Z,1.10
2018-07-02T06:27:51.914Z,2.50
2018-07-02T06:30:19.815Z,1.30
2018-07-02T06:32:47.538Z,1.37
2018-07-02T06:35:15.193Z,1.40
2018-07-02T06:37:42.916Z,1.83
2018-07-02T06:40:10.715Z,1.70
2018-07-02T06:42:38.444Z,1.80
2018-07-02T06:45:06.275Z,1.37
2018-07-02T06:47:34.049Z,0.87
2018-07-02T06:50:01.738Z,1.80
2018-07-02T06:52:29.498Z,1.67
2018-07-02T06:54:57.253Z,1.10
2018-07-02T06:57:24.974Z,2.00
2018-07-02T06:59:52.552Z,1.37
2018-07-02T07:02:20.482Z,1.10
2018-07-02T07:04:48.080Z,1.90
2018-07-02T07:07:16.055Z,1.30
2018-07-02T07:09:43.787Z,1.47
2018-07-02T07:12:11.667Z,1.50
2018-07-02T07:14:39.522Z,1.53
2018-07-02T07:17:07.285Z,1.77
2018-07-02T07:19:35.078Z,1.57
2018-07-02T07:22:02.834Z,1.77
2018-07-02T07:24:30.712Z,1.53
2018-07-02T07:26:58.570Z,1.47
2018-07-02T07:29:26.335Z,1.70
2018-07-02T07:31:54.127Z,1.70
2018-07-02T07:34:21.866Z,1.70
2018-07-02T07:36:49.615Z,1.73
2018-07-02T07:39:17.466Z,1.70
2018-07-02T07:41:45.169Z,1.30
2018-07-02T07:44:12.956Z,1.63
2018-07-02T07:46:40.779Z,1.40
2018-07-02T07:49:08.579Z,2.10
2018-07-02T07:51:36.554Z,1.80
2018-07-02T07:54:04.605Z,1.40
2018-07-02T07:56:32.362Z,1.67
2018-07-02T07:59:00.096Z,2.17
2018-07-02T08:01:27.875Z,1.43
2018-07-02T08:03:55.669Z,1.77
2018-07-02T08:06:23.557Z,1.70
2018-07-02T08:08:51.371Z,1.80
2018-07-02T08:11:19.118Z,1.60
2018-07-02T08:13:46.938Z,1.60
2018-07-02T08:16:14.760Z,1.50
2018-07-02T08:18:42.458Z,1.50
2018-07-02T08:21:10.273Z,1.00
2018-07-02T08:23:37.973Z,1.60
2018-07-02T08:26:07.743Z,1.70
2018-07-02T08:28:35.515Z,1.50
2018-07-02T08:31:03.252Z,1.60
2018-07-02T08:33:31.017Z,1.47
2018-07-02T08:35:59.058Z,1.60
2018-07-02T08:38:26.775Z,1.30
2018-07-02T08:40:54.495Z,1.50
2018-07-02T08:43:22.212Z,1.40
2018-07-02T08:45:49.913Z,1.23
2018-07-02T08:48:17.713Z,1.83
2018-07-02T08:50:45.641Z,1.67
2018-07-02T08:53:13.378Z,1.53
2018-07-02T08:55:41.614Z,1.30
2018-07-02T08:58:09.352Z,1.50
2018-07-02T09:00:37.210Z,1.50
2018-07-02T09:03:05.221Z,1.83
2018-07-02T09:05:33.110Z,1.60
2018-07-02T09:08:01.006Z,1.60
2018-07-02T09:10:29.208Z,1.40
2018-07-02T09:12:57.019Z,1.27
2018-07-02T09:15:24.874Z,1.47
2018-07-02T09:17:52.608Z,1.50
2018-07-02T09:20:20.439Z,1.57
2018-07-02T09:22:48.150Z,1.50
2018-07-02T09:25:15.897Z,1.50
2018-07-02T09:27:43.770Z,1.53
2018-07-02T09:30:11.836Z,1.47
2018-07-02T09:32:39.834Z,1.70
2018-07-02T09:35:07.383Z,1.30
2018-07-02T09:37:35.067Z,1.43
2018-07-02T09:40:05.097Z,1.37
2018-07-02T09:42:32.933Z,1.40
2018-07-02T09:45:01.697Z,1.40
2018-07-02T09:47:29.573Z,1.30
2018-07-02T09:49:57.315Z,1.10
2018-07-02T09:52:25.120Z,1.27
2018-07-02T09:54:52.853Z,1.50
2018-07-02T09:57:22.958Z,1.50
2018-07-02T09:59:50.757Z,1.33
2018-07-02T10:02:18.501Z,1.70
2018-07-02T10:04:46.229Z,1.33
2018-07-02T10:07:14.010Z,1.67
2018-07-02T10:09:41.707Z,1.37
2018-07-02T10:12:09.454Z,1.17
2018-07-02T10:14:37.186Z,1.37
2018-07-02T10:17:05.058Z,1.50
2018-07-02T10:19:32.859Z,1.57
2018-07-02T10:22:00.606Z,1.33
2018-07-02T10:24:28.372Z,1.63
2018-07-02T10:26:56.262Z,1.33
2018-07-02T10:29:24.156Z,1.30
2018-07-02T10:31:51.848Z,1.10
2018-07-02T10:34:19.499Z,1.20
2018-07-02T10:36:47.193Z,1.33
2018-07-02T10:39:14.982Z,1.40
2018-07-02T10:41:42.697Z,1.10
2018-07-02T10:44:10.549Z,1.30
2018-07-02T10:46:38.257Z,1.47
2018-07-02T10:49:06.064Z,1.27
2018-07-02T10:51:33.739Z,1.23
2018-07-02T10:54:01.486Z,1.67
2018-07-02T10:56:29.168Z,1.13
2018-07-02T10:58:57.260Z,1.30
2018-07-02T11:01:26.104Z,1.27
2018-07-02T11:03:53.791Z,1.27
2018-07-02T11:06:21.620Z,1.87
2018-07-02T11:08:49.385Z,1.37
2018-07-02T11:11:17.243Z,1.10
2018-07-02T11:13:44.864Z,1.20
2018-07-02T11:16:12.650Z,1.27
2018-07-02T11:18:40.299Z,1.30
2018-07-02T11:21:08.213Z,1.43
2018-07-02T11:23:35.927Z,1.50
2018-07-02T11:26:03.714Z,0.93
2018-07-02T11:28:31.396Z,1.43
2018-07-02T11:30:59.111Z,1.20
2018-07-02T11:33:26.800Z,1.20
2018-07-02T11:35:54.601Z,0.90
2018-07-02T11:41:14.842Z,1.07
2018-07-02T11:43:42.579Z,0.90
2018-07-02T11:46:10.552Z,1.13
2018-07-02T11:48:38.829Z,1.10
2018-07-02T11:51:06.534Z,1.17
2018-07-02T11:53:34.910Z,1.10
2018-07-02T11:56:02.805Z,1.10
2018-07-02T12:01:23.920Z,1.20
2018-07-02T12:03:52.647Z,1.10
2018-07-02T12:06:20.345Z,1.10
2018-07-02T12:08:48.222Z,1.10
2018-07-02T12:11:15.920Z,0.83
2018-07-02T12:13:43.632Z,1.50
2018-07-02T12:16:11.443Z,1.23
2018-07-02T12:18:39.203Z,1.03
2018-07-02T12:21:06.971Z,1.23
2018-07-02T12:23:34.644Z,1.13
2018-07-02T12:26:02.340Z,1.20
2018-07-02T12:28:30.087Z,1.00
2018-07-02T12:30:57.752Z,0.90
2018-07-02T12:33:25.452Z,1.30
2018-07-02T12:35:53.181Z,1.10
2018-07-02T12:38:20.817Z,1.10
2018-07-02T12:40:48.611Z,1.10
2018-07-02T12:43:16.312Z,1.10
2018-07-02T12:45:44.050Z,1.07
2018-07-02T12:48:11.793Z,1.03
2018-07-02T12:50:39.595Z,1.10
2018-07-02T12:53:07.472Z,1.10
2018-07-02T12:55:35.312Z,1.10
2018-07-02T12:58:03.061Z,1.00
2018-07-02T13:00:30.913Z,1.27
2018-07-02T13:02:58.705Z,1.10
2018-07-02T13:05:26.376Z,1.80
2018-07-02T13:07:54.213Z,1.10
2018-07-02T13:10:22.100Z,1.10
2018-07-02T13:12:49.833Z,1.03
2018-07-02T13:15:17.499Z,1.10
2018-07-02T13:17:45.189Z,1.10
2018-07-02T13:20:12.823Z,1.40
2018-07-02T13:22:40.521Z,1.00
2018-07-02T13:25:08.258Z,1.50
2018-07-02T13:27:36.035Z,0.80
2018-07-02T13:30:04.380Z,1.10
2018-07-02T13:32:32.064Z,1.40
2018-07-02T13:35:00.576Z,1.20
2018-07-02T13:37:28.300Z,1.13
2018-07-02T13:39:56.043Z,1.50
2018-07-02T13:42:23.764Z,1.37
2018-07-02T13:44:51.426Z,0.90
2018-07-02T13:47:19.305Z,1.23
2018-07-02T13:49:47.082Z,1.30
2018-07-02T13:52:14.873Z,1.20
2018-07-02T13:54:42.803Z,1.10
2018-07-02T13:57:10.510Z,1.40
2018-07-02T13:59:39.071Z,1.17
2018-07-02T14:02:06.931Z,1.30
2018-07-02T14:04:35.664Z,1.10
2018-07-02T14:07:03.396Z,1.50
2018-07-02T14:09:31.192Z,1.30
2018-07-02T14:11:59.013Z,1.40
2018-07-02T14:14:26.763Z,1.03
2018-07-02T14:16:58.316Z,1.27
2018-07-02T14:19:26.057Z,1.07
2018-07-02T14:21:53.808Z,1.10
2018-07-02T14:24:21.576Z,1.10
2018-07-02T14:26:49.296Z,1.00
2018-07-02T14:29:17.005Z,1.13
2018-07-02T14:31:44.720Z,1.20
2018-07-02T14:34:12.322Z,1.00
2018-07-02T14:36:40.025Z,1.23
2018-07-02T14:39:10.732Z,1.30
2018-07-02T14:41:38.431Z,1.00
2018-07-02T14:44:06.364Z,1.17
2018-07-02T14:46:34.273Z,1.07
2018-07-02T14:49:16.432Z,0.93
2018-07-02T14:51:57.243Z,1.13
2018-07-02T14:54:25.020Z,1.13
2018-07-02T14:56:53.799Z,0.90
2018-07-02T14:59:21.741Z,1.10
2018-07-02T15:01:54.332Z,1.27
2018-07-02T15:04:22.105Z,1.10
2018-07-02T15:06:54.863Z,1.37
2018-07-02T15:09:23.345Z,1.37
2018-07-02T15:11:55.597Z,1.00
2018-07-02T15:14:23.305Z,1.37
2018-07-02T15:16:51.160Z,1.20
2018-07-02T15:19:18.979Z,1.10
2018-07-02T15:21:47.274Z,1.10
2018-07-02T15:24:15.655Z,1.10
2018-07-02T15:26:43.496Z,1.10
2018-07-02T15:29:11.279Z,1.00
2018-07-02T15:31:39.016Z,0.73
2018-07-02T15:34:06.767Z,1.00
2018-07-02T15:36:34.648Z,1.00
2018-07-02T15:39:02.470Z,0.93
2018-07-02T15:41:30.213Z,0.83
2018-07-02T15:43:58.017Z,1.13
2018-07-02T15:46:25.739Z,1.20
2018-07-02T15:48:53.560Z,1.20
2018-07-02T15:51:21.288Z,1.10
2018-07-02T15:53:49.030Z,1.10
2018-07-02T15:56:16.741Z,1.27
2018-07-02T15:58:44.470Z,1.20
2018-07-02T16:01:12.223Z,1.00
2018-07-02T16:03:39.949Z,1.17
2018-07-02T16:06:07.663Z,1.17
2018-07-02T16:08:35.464Z,1.20
2018-07-02T16:11:10.294Z,1.40
2018-07-02T16:13:37.969Z,1.10
2018-07-02T16:16:05.656Z,1.33
2018-07-02T16:18:33.548Z,1.20
2018-07-02T16:21:01.289Z,1.23
2018-07-02T16:23:29.025Z,1.00
2018-07-02T16:25:56.695Z,1.43
2018-07-02T16:41:24.086Z,1.27
2018-07-02T16:43:51.864Z,1.30
2018-07-02T16:59:19.231Z,1.00
2018-07-02T17:01:47.053Z,1.20
2018-07-02T17:04:14.763Z,1.50
2018-07-02T17:06:42.524Z,1.40
2018-07-02T17:09:11.740Z,1.50
2018-07-02T17:11:40.109Z,1.50
2018-07-02T17:14:08.419Z,2.70
2018-07-02T17:16:36.736Z,1.70
2018-07-02T17:19:04.643Z,1.43
2018-07-02T17:21:32.405Z,1.57
2018-07-02T17:24:00.160Z,1.40
2018-07-02T17:26:27.872Z,1.30
2018-07-02T17:28:55.609Z,1.20
2018-07-02T17:31:24.066Z,1.23
2018-07-02T17:33:51.825Z,1.20
2018-07-02T17:36:19.553Z,1.17
2018-07-02T17:38:47.296Z,1.47
2018-07-02T17:41:15.148Z,1.23
2018-07-02T17:43:42.873Z,1.40
2018-07-02T17:46:10.761Z,1.10
2018-07-02T17:48:38.632Z,1.70
2018-07-02T17:51:06.761Z,1.37
2018-07-02T17:53:34.591Z,1.13
2018-07-02T17:56:02.481Z,1.67
2018-07-02T17:58:32.983Z,1.33
2018-07-02T18:01:01.298Z,1.40
2018-07-02T18:03:29.088Z,1.20
2018-07-02T18:05:56.868Z,1.23
2018-07-02T18:08:29.225Z,1.50
2018-07-02T18:10:57.020Z,1.37
2018-07-02T18:13:24.746Z,1.20
2018-07-02T18:15:52.458Z,1.40
2018-07-02T18:18:20.239Z,1.40
2018-07-02T18:20:47.952Z,1.57
2018-07-02T18:23:15.704Z,1.30
2018-07-02T18:25:43.532Z,1.53
2018-07-02T18:28:11.339Z,1.50
2018-07-02T18:30:39.042Z,1.40
2018-07-02T18:33:07.003Z,2.20
2018-07-02T18:35:35.212Z,1.87
2018-07-02T18:38:03.020Z,1.53
2018-07-02T18:40:30.822Z,1.63
2018-07-02T18:42:58.656Z,1.50
2018-07-02T18:45:26.387Z,1.60
2018-07-02T18:47:54.423Z,1.40
2018-07-02T18:50:22.160Z,1.40
2018-07-02T18:52:49.906Z,1.90
2018-07-02T18:55:17.575Z,1.47
2018-07-02T18:57:45.303Z,1.77
2018-07-02T19:00:13.059Z,1.67
2018-07-02T19:02:41.766Z,1.33
2018-07-02T19:05:09.741Z,1.50
2018-07-02T19:07:37.538Z,1.40
2018-07-02T19:10:08.509Z,1.27
2018-07-02T19:12:36.326Z,1.50
2018-07-02T19:15:04.217Z,1.40
2018-07-02T19:17:32.019Z,1.90
2018-07-02T19:19:59.695Z,1.60
2018-07-02T19:22:27.531Z,1.60
2018-07-02T19:24:55.214Z,1.80
2018-07-02T19:27:27.434Z,1.87
2018-07-02T19:29:55.557Z,1.40
2018-07-02T19:32:23.433Z,2.10
2018-07-02T19:34:51.212Z,1.83
2018-07-02T19:37:18.993Z,2.00
2018-07-02T19:39:47.346Z,2.10
2018-07-02T19:42:15.196Z,3.17
2018-07-02T19:44:42.980Z,2.50
2018-07-02T19:47:10.699Z,2.40
2018-07-02T19:49:42.445Z,1.67
2018-07-02T19:52:10.130Z,2.30
2018-07-02T19:54:37.902Z,2.40
2018-07-02T19:57:05.983Z,2.20
2018-07-02T19:59:33.759Z,2.37
2018-07-02T20:02:01.527Z,2.13
2018-07-02T20:04:33.695Z,2.23
2018-07-02T20:07:01.740Z,2.80
2018-07-02T20:09:29.861Z,2.30
2018-07-02T20:11:58.048Z,2.37
2018-07-02T20:14:26.013Z,2.30
2018-07-02T20:16:53.854Z,2.27
2018-07-02T20:19:21.626Z,2.43
2018-07-02T20:21:49.727Z,2.57
2018-07-02T20:24:17.514Z,2.73
2018-07-02T20:26:45.264Z,3.03
2018-07-02T20:29:12.971Z,2.50
2018-07-02T20:31:40.741Z,2.33
2018-07-02T20:34:08.599Z,2.73
2018-07-02T20:36:36.497Z,2.50
2018-07-02T20:39:07.394Z,2.60
2018-07-02T20:41:35.336Z,2.33
2018-07-02T20:44:03.206Z,2.60
2018-07-02T20:46:31.039Z,3.23
2018-07-02T20:48:58.853Z,2.97
2018-07-02T20:51:26.607Z,3.33
2018-07-02T20:53:54.458Z,3.10
2018-07-02T20:56:22.192Z,2.80
2018-07-02T20:58:50.043Z,3.03
2018-07-02T21:01:18.929Z,2.70
2018-07-02T21:03:46.714Z,3.73
2018-07-02T21:06:14.669Z,3.20
2018-07-02T21:08:44.752Z,2.90
2018-07-02T21:11:12.537Z,2.70
2018-07-02T21:13:40.430Z,3.17
2018-07-02T21:16:08.293Z,2.63
2018-07-02T21:18:36.217Z,3.10
2018-07-02T21:21:04.013Z,3.23
2018-07-02T21:23:31.758Z,2.80
2018-07-02T21:25:59.463Z,3.00
2018-07-02T21:28:27.232Z,2.90
2018-07-02T21:30:55.287Z,3.07
2018-07-02T21:33:23.026Z,2.80
2018-07-02T21:35:50.740Z,3.03
2018-07-02T21:38:18.432Z,3.07
2018-07-02T21:40:46.492Z,3.20
2018-07-02T21:43:14.243Z,3.00
2018-07-02T21:45:42.005Z,3.20
2018-07-02T21:48:09.754Z,2.97
2018-07-02T21:50:37.433Z,3.23
2018-07-02T21:53:05.444Z,3.23
2018-07-02T21:55:33.190Z,2.93
2018-07-02T21:58:00.847Z,3.00
2018-07-02T22:00:28.968Z,2.83
2018-07-02T22:02:57.089Z,2.80
2018-07-02T22:05:25.009Z,3.47
2018-07-02T22:07:52.754Z,3.00
2018-07-02T22:10:20.524Z,3.30
2018-07-02T22:12:48.323Z,2.77
2018-07-02T22:15:16.036Z,3.37
2018-07-02T22:17:43.744Z,3.80
2018-07-02T22:20:11.456Z,2.93
2018-07-02T22:22:40.215Z,3.47
2018-07-02T22:25:08.002Z,4.17
2018-07-02T22:27:36.888Z,3.80
2018-07-02T22:30:04.676Z,3.80
2018-07-02T22:32:32.500Z,3.90
2018-07-02T22:35:00.192Z,3.20
2018-07-02T22:37:28.041Z,3.50
2018-07-02T22:39:55.712Z,3.33
2018-07-02T22:42:27.932Z,3.50
2018-07-02T22:44:55.632Z,3.80
2018-07-02T22:47:23.297Z,3.03
2018-07-02T22:49:50.978Z,3.53
2018-07-02T22:52:18.691Z,3.50
2018-07-02T22:54:46.384Z,4.37
2018-07-02T22:57:14.279Z,3.67
2018-07-02T22:59:41.939Z,3.50
2018-07-02T23:02:09.729Z,3.57
2018-07-02T23:04:37.392Z,4.70
2018-07-02T23:07:05.193Z,3.30
2018-07-02T23:09:32.876Z,3.90
2018-07-02T23:12:00.733Z,4.57
2018-07-02T23:14:28.448Z,3.83
2018-07-02T23:16:56.245Z,4.57
2018-07-02T23:19:23.964Z,4.37
2018-07-02T23:21:51.680Z,3.83
2018-07-02T23:24:19.351Z,4.00
2018-07-02T23:26:47.032Z,4.10
2018-07-02T23:29:14.737Z,4.00
2018-07-02T23:31:42.417Z,4.60
2018-07-02T23:34:10.119Z,4.40
2018-07-02T23:36:37.988Z,4.97
2018-07-02T23:39:08.573Z,5.03
2018-07-02T23:41:36.271Z,4.77
2018-07-02T23:44:03.958Z,5.00
2018-07-02T23:46:31.659Z,4.50
2018-07-02T23:48:59.328Z,5.00
2018-07-02T23:51:27.065Z,3.80
2018-07-02T23:53:54.607Z,4.87
2018-07-02T23:56:22.396Z,3.80
2018-07-02T23:58:50.011Z,4.73
